Grand Rapids, MI

9:26 PM EST on December 27, 2014 (GMT -0500)
Cascade | Change Station
CLOSE
Current Station
Personal Weather Station
Location: Grand Rapids, MI
Elevation: 759 ft
Nearby Weather Stations

Elev 759 ft 42.94 °N, 85.50 °W | Updated 3 seconds ago

Overcast
Overcast
36.3 °F
Feels Like 36 °F
N
2.0
Wind Variable Wind from WSW
Gusts 8.0 mph

Today
High -- | Low -- °F
--% Chance of Precip.
Yesterday
High -- | Low -- °F
Precip. -- in
8:12 AM 5:14 PM
Waxing Crescent, 42% visible
Pressure 30.02 in
Visibility 10.0 miles
Clouds Overcast 2000 ft
Windchill 36 °F
Dew Point 32 °F
Humidity 83%
Rainfall 0.02 in
Snow Depth Not available.
UV 0 out of 12
Pollen .10 out of 12
Air Quality Not available.
Flu Activity Not available.
METAR KGRR 280153Z 28013G23KT 10SM OVC020 02/M02 A3000 RMK AO2 PK WND 28029/0121 SLP164 T00221017

More Conditions Fewer Conditions

Pressure 30.02 in
Visibility 10.0 miles
Clouds Overcast 2000 ft
Windchill 36 °F
Dew Point 32 °F
Humidity 83%
Rainfall 0.02 in
Snow Depth Not available.
UV 0 out of 12
Pollen .10 out of 12
Air Quality Not available.
Flu Activity Not available.
METAR KGRR 280153Z 28013G23KT 10SM OVC020 02/M02 A3000 RMK AO2 PK WND 28029/0121 SLP164 T00221017

More Conditions Fewer Conditions

10-Day Weather Forecast

Almanac

Astronomy

Dec. 27, 2014 Rise Set
Actual Time
Civil Twilight
Nautical Twilight
Astronomical Twilight
Moon
Length of Visible Light
Length of Day
Tomorrow will be .
, % of the Moon is Illuminated

Today's Extremes

State Highs State Lows

Community

WunderPhotos

Upload Photos

1,781,142 photos uploaded!

WunderBlogs® & News

Nearby

Air Quality

  Air Quality AQ Index Pollutant
Not available.

Snow Depth

Station Depth Elevation

Earthquake Activity

City Distance Mag. Time & Date
Minimum magnitude displayed is 2.5.

Coastal Water Temperatures

Place Temperature

Nearby Weather Stations